createdAt,value
2018-05-19T00:00:53.249Z,10.77
2018-05-19T00:01:53.039Z,10.80
2018-05-19T00:02:53.159Z,10.76
2018-05-19T00:03:52.993Z,10.77
2018-05-19T00:04:53.058Z,10.77
2018-05-19T00:05:52.944Z,10.74
2018-05-19T00:06:53.081Z,10.68
2018-05-19T00:07:52.898Z,10.63
2018-05-19T00:08:52.992Z,10.65
2018-05-19T00:09:52.850Z,10.68
2018-05-19T00:10:53.009Z,10.66
2018-05-19T00:11:52.799Z,10.63
2018-05-19T00:12:52.919Z,10.74
2018-05-19T00:13:52.746Z,10.76
2018-05-19T00:14:52.832Z,10.70
2018-05-19T00:15:52.692Z,10.62
2018-05-19T00:16:52.843Z,10.63
2018-05-19T00:17:52.654Z,10.73
2018-05-19T00:18:52.755Z,10.76
2018-05-19T00:19:52.611Z,10.55
2018-05-19T00:20:52.774Z,10.60
2018-05-19T00:21:52.558Z,10.59
2018-05-19T00:22:52.683Z,10.56
2018-05-19T00:23:52.518Z,10.59
2018-05-19T00:24:52.593Z,10.47
2018-05-19T00:25:52.460Z,10.42
2018-05-19T00:26:52.611Z,10.47
2018-05-19T00:27:52.410Z,10.43
2018-05-19T00:28:53.539Z,10.46
2018-05-19T00:29:52.366Z,10.46
2018-05-19T00:30:52.535Z,10.53
2018-05-19T00:31:52.317Z,10.44
2018-05-19T00:32:52.443Z,10.34
2018-05-19T00:33:52.266Z,10.34
2018-05-19T00:34:52.358Z,10.30
2018-05-19T00:35:52.214Z,10.22
2018-05-19T00:36:52.371Z,10.21
2018-05-19T00:37:52.166Z,10.19
2018-05-19T00:38:52.280Z,10.10
2018-05-19T00:39:52.124Z,10.10
2018-05-19T00:40:52.294Z,10.07
2018-05-19T00:41:52.088Z,10.17
2018-05-19T00:42:52.206Z,10.15
2018-05-19T00:43:52.020Z,10.00
2018-05-19T00:44:52.120Z,9.96
2018-05-19T00:45:51.973Z,10.03
2018-05-19T00:46:52.133Z,9.93
2018-05-19T00:47:51.923Z,9.96
2018-05-19T00:48:52.045Z,9.82
2018-05-19T00:49:51.878Z,9.85
2018-05-19T00:50:51.957Z,9.88
2018-05-19T00:51:51.822Z,9.85
2018-05-19T00:52:51.869Z,9.82
2018-05-19T00:53:51.777Z,9.85
2018-05-19T00:54:51.773Z,9.91
2018-05-19T00:55:51.731Z,9.79
2018-05-19T00:56:51.792Z,9.83
2018-05-19T00:57:51.681Z,9.83
2018-05-19T00:58:51.704Z,9.76
2018-05-19T00:59:51.629Z,9.73
2018-05-19T01:00:51.719Z,9.66
2018-05-19T01:01:51.576Z,9.56
2018-05-19T01:02:51.633Z,9.60
2018-05-19T01:03:51.526Z,9.60
2018-05-19T01:04:51.548Z,9.52
2018-05-19T01:05:51.482Z,9.52
2018-05-19T01:06:51.558Z,9.46
2018-05-19T01:07:51.422Z,9.53
2018-05-19T01:08:51.470Z,9.48
2018-05-19T01:09:51.435Z,9.45
2018-05-19T01:10:51.482Z,9.43
2018-05-19T01:11:51.329Z,9.46
2018-05-19T01:12:51.397Z,9.39
2018-05-19T01:13:51.279Z,9.34
2018-05-19T01:14:51.307Z,9.34
2018-05-19T01:15:51.229Z,9.25
2018-05-19T01:16:51.322Z,9.30
2018-05-19T01:17:51.180Z,9.31
2018-05-19T01:18:51.232Z,9.32
2018-05-19T01:19:51.125Z,9.28
2018-05-19T01:20:51.241Z,9.23
2018-05-19T01:21:51.078Z,9.23
2018-05-19T01:22:51.160Z,9.21
2018-05-19T01:23:51.034Z,9.28
2018-05-19T01:24:51.062Z,9.21
2018-05-19T01:25:50.979Z,9.16
2018-05-19T01:26:51.086Z,9.09
2018-05-19T01:27:50.929Z,9.21
2018-05-19T01:28:50.997Z,9.18
2018-05-19T01:29:50.878Z,9.12
2018-05-19T01:30:50.912Z,9.18
2018-05-19T01:31:50.839Z,9.18
2018-05-19T01:32:50.926Z,9.10
2018-05-19T01:33:50.781Z,9.09
2018-05-19T01:34:50.836Z,9.01
2018-05-19T01:35:50.725Z,9.01
2018-05-19T01:36:50.852Z,8.94
2018-05-19T01:37:50.678Z,8.91
2018-05-19T01:38:50.761Z,8.91
2018-05-19T01:39:50.630Z,8.91
2018-05-19T01:40:50.675Z,8.90
2018-05-19T01:41:50.580Z,8.91
2018-05-19T01:42:50.689Z,8.88
2018-05-19T01:43:50.526Z,8.94
2018-05-19T01:44:50.603Z,8.86
2018-05-19T01:45:50.473Z,8.86
2018-05-19T01:46:50.637Z,8.90
2018-05-19T01:47:50.428Z,8.87
2018-05-19T01:48:50.527Z,8.88
2018-05-19T01:49:50.376Z,8.86
2018-05-19T01:50:50.431Z,8.86
2018-05-19T01:51:50.318Z,8.81
2018-05-19T01:52:50.441Z,8.76
2018-05-19T01:53:50.272Z,8.79
2018-05-19T01:54:50.353Z,8.79
2018-05-19T01:55:50.221Z,8.78
2018-05-19T01:56:50.271Z,8.65
2018-05-19T01:57:50.172Z,8.81
2018-05-19T01:58:50.289Z,8.79
2018-05-19T01:59:50.121Z,8.72
2018-05-19T02:00:50.199Z,8.78
2018-05-19T02:01:50.068Z,8.71
2018-05-19T02:02:50.213Z,8.73
2018-05-19T02:03:50.021Z,8.66
2018-05-19T02:04:50.124Z,8.73
2018-05-19T02:05:49.968Z,8.71
2018-05-19T02:06:50.042Z,8.58
2018-05-19T02:07:49.918Z,8.66
2018-05-19T02:08:50.051Z,8.62
2018-05-19T02:09:49.867Z,8.63
2018-05-19T02:10:49.975Z,8.58
2018-05-19T02:11:49.817Z,8.54
2018-05-19T02:12:49.978Z,8.57
2018-05-19T02:13:49.767Z,8.54
2018-05-19T02:14:49.888Z,8.48
2018-05-19T02:15:49.715Z,8.44
2018-05-19T02:16:49.798Z,8.55
2018-05-19T02:17:49.664Z,8.48
2018-05-19T02:18:49.814Z,8.47
2018-05-19T02:19:49.611Z,8.40
2018-05-19T02:20:49.726Z,8.45
2018-05-19T02:21:49.557Z,8.45
2018-05-19T02:22:49.637Z,8.48
2018-05-19T02:23:49.506Z,8.47
2018-05-19T02:24:49.651Z,8.42
2018-05-19T02:25:49.455Z,8.39
2018-05-19T02:26:49.561Z,8.35
2018-05-19T02:27:49.408Z,8.37
2018-05-19T02:28:49.576Z,8.36
2018-05-19T02:29:49.353Z,8.42
2018-05-19T02:30:49.487Z,8.39
2018-05-19T02:31:49.303Z,8.26
2018-05-19T02:32:49.399Z,8.33
2018-05-19T02:33:49.251Z,8.30
2018-05-19T02:34:49.414Z,8.26
2018-05-19T02:35:49.202Z,8.30
2018-05-19T02:36:49.324Z,8.30
2018-05-19T02:37:49.152Z,8.36
2018-05-19T02:38:49.237Z,8.28
2018-05-19T02:39:49.097Z,8.29
2018-05-19T02:40:49.243Z,8.26
2018-05-19T02:41:49.048Z,8.26
2018-05-19T02:42:49.163Z,8.33
2018-05-19T02:43:48.989Z,8.30
2018-05-19T02:44:49.177Z,8.26
2018-05-19T02:45:48.939Z,8.29
2018-05-19T02:46:49.094Z,8.30
2018-05-19T02:47:48.890Z,8.28
2018-05-19T02:48:49.009Z,8.21
2018-05-19T02:49:48.837Z,8.28
2018-05-19T02:50:49.017Z,8.28
2018-05-19T02:51:48.787Z,8.28
2018-05-19T02:52:48.924Z,8.28
2018-05-19T02:53:48.738Z,8.29
2018-05-19T02:54:48.836Z,8.29
2018-05-19T02:55:48.718Z,8.32
2018-05-19T02:56:48.854Z,8.33
2018-05-19T02:57:48.638Z,8.29
2018-05-19T02:58:48.768Z,8.28
2018-05-19T02:59:48.587Z,8.26
2018-05-19T03:00:48.678Z,8.30
2018-05-19T03:01:48.535Z,8.32
2018-05-19T03:02:48.592Z,8.30
2018-05-19T03:03:48.479Z,8.33
2018-05-19T03:04:48.508Z,8.35
2018-05-19T03:05:48.423Z,8.36
2018-05-19T03:06:48.516Z,8.36
2018-05-19T03:07:48.378Z,8.45
2018-05-19T03:08:48.424Z,8.42
2018-05-19T03:09:48.322Z,8.50
2018-05-19T03:10:48.339Z,8.51
2018-05-19T03:11:48.280Z,8.62
2018-05-19T03:12:48.353Z,8.60
2018-05-19T03:13:48.217Z,8.68
2018-05-19T03:14:48.265Z,8.78
2018-05-19T03:15:48.165Z,8.76
2018-05-19T03:16:48.177Z,8.79
2018-05-19T03:17:48.112Z,8.71
2018-05-19T03:18:48.192Z,8.81
2018-05-19T03:19:48.065Z,8.93
2018-05-19T03:20:48.109Z,8.90
2018-05-19T03:21:48.010Z,8.86
2018-05-19T03:22:48.119Z,8.91
2018-05-19T03:23:47.973Z,8.97
2018-05-19T03:24:48.032Z,8.94
2018-05-19T03:25:47.912Z,8.97
2018-05-19T03:26:47.943Z,8.97
2018-05-19T03:27:47.860Z,9.02
2018-05-19T03:28:47.956Z,9.02
2018-05-19T03:29:47.804Z,8.96
2018-05-19T03:30:47.871Z,8.97
2018-05-19T03:31:47.761Z,9.05
2018-05-19T03:32:47.778Z,8.99
2018-05-19T03:33:47.705Z,8.97
2018-05-19T03:34:47.792Z,9.04
2018-05-19T03:35:47.651Z,9.05
2018-05-19T03:36:47.703Z,9.04
2018-05-19T03:37:47.602Z,9.06
2018-05-19T03:38:47.714Z,9.09
2018-05-19T03:39:47.546Z,9.13
2018-05-19T03:40:47.628Z,9.18
2018-05-19T03:41:47.499Z,9.16
2018-05-19T03:42:47.540Z,9.16
2018-05-19T03:43:47.450Z,9.25
2018-05-19T03:44:47.551Z,9.20
2018-05-19T03:45:47.394Z,9.15
2018-05-19T03:46:47.464Z,9.12
2018-05-19T03:47:47.340Z,9.21
2018-05-19T03:48:47.381Z,9.25
2018-05-19T03:49:47.289Z,9.18
2018-05-19T03:50:47.390Z,9.16
2018-05-19T03:51:47.240Z,9.16
2018-05-19T03:52:47.304Z,9.13
2018-05-19T03:53:47.247Z,9.25
2018-05-19T03:54:47.318Z,9.24
2018-05-19T03:55:47.135Z,9.27
2018-05-19T03:56:47.232Z,9.28
2018-05-19T03:57:47.086Z,9.28
2018-05-19T03:58:47.140Z,9.31
2018-05-19T03:59:47.053Z,9.31
2018-05-19T04:00:47.151Z,9.28
2018-05-19T04:01:46.983Z,9.25
2018-05-19T04:02:47.062Z,9.25
2018-05-19T04:03:46.932Z,9.27
2018-05-19T04:04:47.082Z,9.30
2018-05-19T04:05:46.880Z,9.13
2018-05-19T04:06:46.989Z,9.23
2018-05-19T04:07:46.830Z,9.20
2018-05-19T04:08:46.903Z,9.18
2018-05-19T04:09:46.775Z,9.09
2018-05-19T04:10:46.916Z,9.16
2018-05-19T04:11:46.726Z,9.13
2018-05-19T04:12:46.825Z,9.06
2018-05-19T04:13:46.673Z,9.16
2018-05-19T04:14:46.737Z,9.16
2018-05-19T04:15:46.621Z,9.18
2018-05-19T04:16:46.758Z,9.16
2018-05-19T04:17:46.571Z,9.12
2018-05-19T04:18:46.663Z,9.28
2018-05-19T04:19:46.527Z,9.28
2018-05-19T04:20:46.691Z,9.25
2018-05-19T04:21:46.473Z,9.25
2018-05-19T04:22:46.590Z,9.30
2018-05-19T04:23:46.418Z,9.30
2018-05-19T04:24:46.499Z,9.30
2018-05-19T04:25:46.367Z,9.32
2018-05-19T04:26:46.515Z,9.27
2018-05-19T04:27:46.319Z,9.40
2018-05-19T04:28:46.427Z,9.40
2018-05-19T04:29:46.266Z,9.32
2018-05-19T04:30:46.335Z,9.40
2018-05-19T04:31:46.214Z,9.45
2018-05-19T04:32:46.350Z,9.38
2018-05-19T04:33:46.180Z,9.43
2018-05-19T04:34:46.268Z,9.52
2018-05-19T04:35:46.113Z,9.60
2018-05-19T04:36:46.277Z,9.49
2018-05-19T04:37:46.067Z,9.58
2018-05-19T04:38:46.199Z,9.63
2018-05-19T04:39:46.011Z,9.60
2018-05-19T04:40:46.103Z,9.73
2018-05-19T04:41:45.960Z,9.73
2018-05-19T04:42:46.115Z,9.68
2018-05-19T04:43:45.908Z,9.73
2018-05-19T04:44:46.028Z,9.78
2018-05-19T04:45:45.862Z,9.86
2018-05-19T04:46:45.941Z,9.86
2018-05-19T04:47:45.807Z,9.86
2018-05-19T04:48:45.951Z,9.81
2018-05-19T04:49:45.762Z,9.89
2018-05-19T04:50:45.863Z,9.86
2018-05-19T04:51:45.706Z,10.04
2018-05-19T04:52:45.878Z,10.04
2018-05-19T04:53:45.654Z,10.01
2018-05-19T04:54:45.790Z,10.04
2018-05-19T04:55:45.605Z,10.18
2018-05-19T04:56:45.718Z,10.09
2018-05-19T04:57:45.552Z,10.06
2018-05-19T04:58:45.715Z,10.14
2018-05-19T04:59:45.507Z,10.21
2018-05-19T05:00:45.628Z,10.10
2018-05-19T05:01:45.459Z,10.14
2018-05-19T05:02:45.642Z,10.21
2018-05-19T05:03:45.451Z,10.26
2018-05-19T05:04:45.560Z,10.26
2018-05-19T05:05:45.351Z,10.32
2018-05-19T05:06:45.465Z,10.36
2018-05-19T05:07:45.304Z,10.32
2018-05-19T05:08:45.378Z,10.36
2018-05-19T05:09:45.254Z,10.43
2018-05-19T05:10:45.289Z,10.36
2018-05-19T05:11:45.209Z,10.42
2018-05-19T05:12:45.200Z,10.40
2018-05-19T05:13:45.152Z,10.42
2018-05-19T05:14:45.215Z,10.58
2018-05-19T05:15:45.101Z,10.56
2018-05-19T05:16:46.158Z,10.60
2018-05-19T05:17:45.055Z,10.60
2018-05-19T05:18:45.142Z,10.63
2018-05-19T05:19:45.042Z,10.53
2018-05-19T05:20:45.051Z,10.66
2018-05-19T05:21:44.951Z,10.62
2018-05-19T05:22:44.966Z,10.71
2018-05-19T05:23:44.904Z,10.78
2018-05-19T05:24:44.979Z,10.73
2018-05-19T05:25:44.849Z,10.84
2018-05-19T05:26:44.891Z,10.84
2018-05-19T05:27:44.801Z,10.92
2018-05-19T05:28:44.908Z,10.95
2018-05-19T05:29:44.753Z,11.03
2018-05-19T05:30:44.816Z,11.03
2018-05-19T05:31:44.699Z,11.10
2018-05-19T05:32:44.727Z,11.11
2018-05-19T05:33:44.656Z,11.16
2018-05-19T05:34:44.742Z,11.20
2018-05-19T05:35:44.606Z,11.21
2018-05-19T05:36:44.654Z,11.32
2018-05-19T05:37:44.582Z,11.34
2018-05-19T05:38:44.670Z,11.36
2018-05-19T05:39:44.502Z,11.39
2018-05-19T05:40:44.580Z,11.43
2018-05-19T05:41:44.455Z,11.52
2018-05-19T05:42:44.489Z,11.59
2018-05-19T05:43:44.405Z,11.61
2018-05-19T05:44:44.504Z,11.65
2018-05-19T05:45:44.359Z,11.62
2018-05-19T05:46:44.418Z,11.65
2018-05-19T05:47:44.307Z,11.72
2018-05-19T05:48:44.431Z,11.78
2018-05-19T05:49:44.257Z,11.80
2018-05-19T05:50:44.346Z,11.85
2018-05-19T05:51:44.208Z,11.86
2018-05-19T05:52:44.257Z,11.77
2018-05-19T05:53:44.161Z,11.87
2018-05-19T05:54:44.271Z,11.90
2018-05-19T05:55:44.112Z,11.94
2018-05-19T05:56:44.183Z,11.93
2018-05-19T05:57:44.066Z,11.99
2018-05-19T05:58:44.194Z,12.04
2018-05-19T05:59:44.107Z,12.04
2018-05-19T06:00:44.111Z,12.06
2018-05-19T06:01:43.965Z,12.16
2018-05-19T06:02:44.016Z,12.15
2018-05-19T06:03:43.919Z,12.23
2018-05-19T06:04:44.045Z,12.30
2018-05-19T06:05:43.870Z,12.31
2018-05-19T06:06:43.947Z,12.39
2018-05-19T06:07:43.833Z,12.33
2018-05-19T06:08:43.968Z,12.45
2018-05-19T06:09:43.776Z,12.42
2018-05-19T06:10:43.871Z,12.45
2018-05-19T06:11:43.727Z,12.45
2018-05-19T06:12:43.781Z,12.41
2018-05-19T06:13:43.680Z,12.44
2018-05-19T06:14:43.799Z,12.45
2018-05-19T06:15:43.634Z,12.54
2018-05-19T06:16:43.707Z,12.57
2018-05-19T06:17:43.588Z,12.63
2018-05-19T06:18:43.768Z,12.54
2018-05-19T06:19:43.536Z,12.66
2018-05-19T06:20:43.633Z,12.67
2018-05-19T06:21:43.488Z,12.74
2018-05-19T06:22:43.546Z,12.75
2018-05-19T06:23:43.444Z,12.75
2018-05-19T06:24:43.561Z,12.81
2018-05-19T06:25:43.397Z,12.79
2018-05-19T06:26:43.473Z,12.89
2018-05-19T06:27:43.347Z,12.97
2018-05-19T06:28:43.490Z,12.99
2018-05-19T06:29:43.298Z,12.96
2018-05-19T06:30:43.395Z,12.89
2018-05-19T06:31:43.253Z,12.97
2018-05-19T06:32:43.408Z,12.99
2018-05-19T06:33:43.204Z,13.00
2018-05-19T06:34:43.385Z,12.99
2018-05-19T06:35:43.162Z,13.09
2018-05-19T06:36:43.232Z,13.14
2018-05-19T06:37:43.114Z,13.11
2018-05-19T06:38:43.264Z,13.20
2018-05-19T06:39:43.064Z,13.17
2018-05-19T06:40:43.159Z,13.14
2018-05-19T06:41:43.020Z,13.11
2018-05-19T06:42:43.171Z,13.17
2018-05-19T06:43:42.973Z,13.06
2018-05-19T06:44:43.083Z,13.06
2018-05-19T06:45:42.923Z,13.03
2018-05-19T06:46:43.096Z,13.03
2018-05-19T06:47:42.881Z,13.09
2018-05-19T06:48:42.923Z,13.12
2018-05-19T06:49:42.829Z,13.18
2018-05-19T06:50:42.839Z,13.20
2018-05-19T06:51:42.785Z,13.30
2018-05-19T06:52:42.845Z,13.40
2018-05-19T06:53:42.740Z,13.41
2018-05-19T06:54:42.853Z,13.38
2018-05-19T06:55:42.693Z,13.55
2018-05-19T06:56:42.767Z,13.55
2018-05-19T06:57:42.645Z,13.54
2018-05-19T06:58:42.678Z,13.63
2018-05-19T06:59:42.599Z,13.59
2018-05-19T07:00:42.790Z,13.61
2018-05-19T07:01:42.556Z,13.62
2018-05-19T07:02:42.607Z,13.63
2018-05-19T07:03:42.508Z,13.65
2018-05-19T07:04:42.522Z,13.69
2018-05-19T07:05:42.459Z,13.71
2018-05-19T07:06:42.625Z,13.81
2018-05-19T07:07:42.420Z,13.88
2018-05-19T07:08:42.539Z,13.96
2018-05-19T07:09:42.368Z,13.91
2018-05-19T07:10:42.552Z,13.95
2018-05-19T07:11:42.331Z,13.95
2018-05-19T07:12:42.466Z,13.95
2018-05-19T07:13:42.284Z,13.95
2018-05-19T07:14:42.479Z,13.92
2018-05-19T07:15:42.234Z,13.89
2018-05-19T07:16:42.390Z,13.92
2018-05-19T07:17:42.187Z,13.91
2018-05-19T07:18:42.202Z,13.92
2018-05-19T07:19:42.137Z,13.95
2018-05-19T07:20:42.215Z,13.94
2018-05-19T07:21:42.102Z,13.95
2018-05-19T07:22:42.126Z,14.10
2018-05-19T07:23:42.051Z,14.07
2018-05-19T07:24:42.139Z,14.20
2018-05-19T07:25:42.007Z,14.02
2018-05-19T07:26:42.036Z,14.13
2018-05-19T07:27:41.984Z,14.07
2018-05-19T07:28:48.500Z,14.16
2018-05-19T07:29:41.915Z,14.19
2018-05-19T07:30:41.981Z,14.19
2018-05-19T07:31:41.868Z,14.31
2018-05-19T07:32:41.885Z,14.35
2018-05-19T07:33:41.822Z,14.32
2018-05-19T07:34:41.899Z,14.39
2018-05-19T07:35:41.796Z,14.38
2018-05-19T07:36:41.811Z,14.49
2018-05-19T07:37:41.730Z,14.47
2018-05-19T07:38:41.825Z,14.54
2018-05-19T07:39:41.691Z,14.60
2018-05-19T07:40:41.736Z,14.60
2018-05-19T07:41:41.641Z,14.69
2018-05-19T07:42:41.756Z,14.68
2018-05-19T07:43:41.601Z,14.78
2018-05-19T07:44:41.660Z,14.88
2018-05-19T07:45:41.553Z,14.74
2018-05-19T07:46:41.573Z,14.69
2018-05-19T07:47:41.511Z,14.81
2018-05-19T07:48:41.486Z,14.84
2018-05-19T07:49:41.598Z,14.84
2018-05-19T07:50:42.034Z,14.84
2018-05-19T07:51:41.998Z,14.86
2018-05-19T07:52:42.001Z,14.88
2018-05-19T07:53:42.004Z,14.91
2018-05-19T07:54:41.354Z,14.83
2018-05-19T07:55:41.335Z,14.86
2018-05-19T07:56:41.338Z,14.90
2018-05-19T07:57:41.288Z,14.98
2018-05-19T07:58:41.350Z,14.91
2018-05-19T07:59:41.241Z,14.94
2018-05-19T08:00:41.220Z,14.94
2018-05-19T08:01:41.273Z,14.91
2018-05-19T08:02:41.176Z,14.99
2018-05-19T08:03:41.181Z,14.93
2018-05-19T08:04:41.133Z,14.90
2018-05-19T08:05:41.198Z,14.83
2018-05-19T08:06:41.093Z,14.91
2018-05-19T08:07:41.111Z,14.81
2018-05-19T08:08:41.042Z,14.78
2018-05-19T08:09:41.128Z,14.86
2018-05-19T08:10:41.004Z,14.98
2018-05-19T08:11:41.032Z,14.98
2018-05-19T08:12:40.956Z,14.93
2018-05-19T08:13:40.949Z,14.93
2018-05-19T08:14:40.919Z,14.94
2018-05-19T08:15:40.957Z,14.98
2018-05-19T08:16:40.862Z,14.87
2018-05-19T08:17:40.869Z,14.87
2018-05-19T08:18:40.821Z,14.90
2018-05-19T08:19:40.883Z,14.86
2018-05-19T08:20:40.793Z,14.78
2018-05-19T08:21:40.795Z,14.81
2018-05-19T08:22:40.737Z,14.84
2018-05-19T08:23:40.810Z,14.91
2018-05-19T08:24:40.690Z,14.80
2018-05-19T08:25:40.724Z,14.81
2018-05-19T08:26:40.647Z,14.84
2018-05-19T08:27:40.734Z,14.81
2018-05-19T08:28:40.609Z,14.83
2018-05-19T08:29:40.647Z,14.83
2018-05-19T08:30:40.555Z,14.93
2018-05-19T08:31:40.567Z,14.88
2018-05-19T08:32:40.519Z,14.95
2018-05-19T08:33:40.577Z,14.94
2018-05-19T08:34:40.472Z,14.94
2018-05-19T08:35:40.480Z,14.87
2018-05-19T08:36:40.427Z,14.90
2018-05-19T08:37:40.500Z,14.90
2018-05-19T08:38:40.384Z,14.80
2018-05-19T08:39:40.411Z,14.86
2018-05-19T08:40:40.339Z,14.91
2018-05-19T08:41:40.425Z,14.95
2018-05-19T08:42:40.299Z,14.95
2018-05-19T08:43:40.338Z,14.93
2018-05-19T08:44:40.248Z,14.93
2018-05-19T08:45:40.252Z,15.03
2018-05-19T08:46:40.209Z,14.95
2018-05-19T08:47:40.263Z,14.94
2018-05-19T08:48:40.167Z,14.98
2018-05-19T08:49:40.173Z,14.98
2018-05-19T08:50:40.267Z,15.11
2018-05-19T08:51:40.190Z,15.12
2018-05-19T08:52:40.077Z,15.24
2018-05-19T08:53:40.099Z,15.39
2018-05-19T08:54:40.031Z,15.39
2018-05-19T08:55:40.112Z,15.26
2018-05-19T08:56:39.988Z,15.38
2018-05-19T08:57:40.026Z,15.36
2018-05-19T08:58:39.944Z,15.28
2018-05-19T08:59:39.935Z,15.41
2018-05-19T09:00:39.904Z,15.30
2018-05-19T09:01:39.954Z,15.28
2018-05-19T09:02:39.851Z,15.26
2018-05-19T09:03:39.863Z,15.28
2018-05-19T09:04:39.816Z,15.41
2018-05-19T09:05:39.877Z,15.48
2018-05-19T09:06:39.843Z,15.46
2018-05-19T09:07:39.786Z,15.38
2018-05-19T09:08:39.728Z,15.46
2018-05-19T09:09:39.814Z,15.57
2018-05-19T09:10:39.691Z,15.67
2018-05-19T09:11:39.721Z,15.82
2018-05-19T09:12:39.693Z,15.76
2018-05-19T09:13:39.734Z,15.85
2018-05-19T09:14:39.595Z,16.00
2018-05-19T09:15:39.644Z,16.11
2018-05-19T09:16:39.555Z,16.22
2018-05-19T09:17:39.553Z,16.25
2018-05-19T09:18:39.507Z,16.23
2018-05-19T09:19:39.569Z,16.12
2018-05-19T09:20:39.467Z,16.14
2018-05-19T09:21:39.481Z,16.27
2018-05-19T09:22:39.429Z,16.22
2018-05-19T09:23:39.498Z,16.30
2018-05-19T09:24:39.379Z,16.23
2018-05-19T09:25:39.399Z,16.23
2018-05-19T09:26:39.335Z,16.27
2018-05-19T09:27:39.424Z,16.26
2018-05-19T09:28:39.315Z,16.27
2018-05-19T09:29:39.331Z,16.38
2018-05-19T09:30:39.255Z,16.50
2018-05-19T09:31:39.347Z,16.62
2018-05-19T09:32:39.222Z,16.71
2018-05-19T09:33:39.255Z,16.78
2018-05-19T09:34:39.168Z,16.73
2018-05-19T09:35:39.250Z,16.74
2018-05-19T09:36:39.152Z,16.74
2018-05-19T09:37:39.181Z,16.83
2018-05-19T09:38:39.076Z,16.80
2018-05-19T09:39:39.096Z,16.74
2018-05-19T09:40:39.042Z,16.65
2018-05-19T09:41:39.108Z,16.68
2018-05-19T09:42:39.011Z,16.74
2018-05-19T09:43:39.021Z,16.74
2018-05-19T09:44:38.961Z,16.85
2018-05-19T09:45:39.033Z,16.83
2018-05-19T09:46:38.915Z,16.89
2018-05-19T09:47:38.999Z,16.89
2018-05-19T09:48:38.877Z,16.90
2018-05-19T09:49:38.959Z,16.96
2018-05-19T09:50:38.832Z,17.07
2018-05-19T09:51:38.872Z,16.95
2018-05-19T09:52:38.790Z,16.99
2018-05-19T09:53:38.784Z,16.92
2018-05-19T09:54:38.748Z,16.86
2018-05-19T09:55:38.799Z,16.78
2018-05-19T09:56:38.710Z,16.65
2018-05-19T09:57:38.709Z,16.60
2018-05-19T09:58:38.667Z,16.58
2018-05-19T09:59:38.724Z,16.52
2018-05-19T10:00:38.623Z,16.52
2018-05-19T10:01:38.634Z,16.59
2018-05-19T10:02:38.582Z,16.58
2018-05-19T10:03:38.648Z,16.55
2018-05-19T10:04:38.543Z,16.49
2018-05-19T10:05:38.560Z,16.73
2018-05-19T10:06:38.499Z,16.78
2018-05-19T10:07:38.578Z,16.88
2018-05-19T10:08:38.464Z,16.88
2018-05-19T10:09:38.487Z,16.86
2018-05-19T10:10:38.416Z,16.90
2018-05-19T10:11:38.567Z,16.88
2018-05-19T10:12:38.377Z,16.86
2018-05-19T10:13:38.443Z,16.86
2018-05-19T10:14:38.343Z,16.78
2018-05-19T10:15:38.430Z,16.85
2018-05-19T10:16:38.298Z,16.86
2018-05-19T10:17:38.341Z,16.89
2018-05-19T10:18:38.259Z,16.96
2018-05-19T10:19:38.283Z,16.89
2018-05-19T10:20:38.210Z,16.89
2018-05-19T10:21:38.263Z,16.86
2018-05-19T10:22:38.172Z,16.77
2018-05-19T10:23:38.176Z,16.71
2018-05-19T10:24:38.126Z,16.58
2018-05-19T10:25:38.192Z,16.70
2018-05-19T10:26:38.084Z,16.77
2018-05-19T10:27:38.095Z,16.85
2018-05-19T10:28:38.049Z,16.96
2018-05-19T10:29:38.118Z,17.03
2018-05-19T10:30:38.003Z,17.10
2018-05-19T10:31:38.024Z,17.08
2018-05-19T10:32:37.979Z,17.13
2018-05-19T10:33:38.044Z,17.11
2018-05-19T10:34:37.929Z,17.15
2018-05-19T10:35:37.956Z,17.23
2018-05-19T10:36:37.885Z,17.11
2018-05-19T10:37:37.971Z,17.18
2018-05-19T10:38:37.841Z,17.04
2018-05-19T10:39:37.877Z,17.10
2018-05-19T10:40:37.799Z,17.07
2018-05-19T10:41:37.892Z,16.96
2018-05-19T10:42:37.764Z,16.93
2018-05-19T10:43:37.804Z,16.98
2018-05-19T10:44:37.721Z,17.06
2018-05-19T10:45:37.715Z,17.04
2018-05-19T10:46:37.681Z,17.06
2018-05-19T10:47:37.730Z,17.11
2018-05-19T10:48:37.634Z,17.17
2018-05-19T10:49:37.643Z,17.20
2018-05-19T10:50:37.604Z,17.23
2018-05-19T10:51:37.657Z,17.29
2018-05-19T10:52:37.555Z,17.41
2018-05-19T10:53:37.567Z,17.46
2018-05-19T10:54:37.509Z,17.62
2018-05-19T10:55:37.581Z,17.78
2018-05-19T10:56:37.474Z,17.84
2018-05-19T10:57:37.491Z,17.91
2018-05-19T10:58:37.431Z,18.13
2018-05-19T10:59:37.505Z,18.18
2018-05-19T11:00:37.388Z,18.13
2018-05-19T11:01:37.418Z,18.09
2018-05-19T11:02:37.351Z,18.21
2018-05-19T11:03:37.422Z,18.52
2018-05-19T11:04:37.310Z,18.72
2018-05-19T11:05:37.344Z,18.87
2018-05-19T11:06:37.278Z,18.98
2018-05-19T11:07:37.358Z,19.17
2018-05-19T11:08:37.230Z,19.24
2018-05-19T11:09:37.271Z,19.33
2018-05-19T11:10:37.191Z,19.38
2018-05-19T11:11:37.285Z,19.50
2018-05-19T11:12:37.152Z,19.55
2018-05-19T11:13:37.195Z,19.47
2018-05-19T11:14:37.112Z,19.39
2018-05-19T11:15:37.210Z,19.17
2018-05-19T11:16:37.074Z,19.14
2018-05-19T11:17:37.126Z,19.28
2018-05-19T11:18:37.115Z,19.20
2018-05-19T11:19:37.040Z,19.31
2018-05-19T11:20:36.996Z,19.50
2018-05-19T11:21:37.050Z,19.57
2018-05-19T11:22:36.965Z,19.66
2018-05-19T11:23:36.970Z,19.54
2018-05-19T11:24:36.919Z,19.72
2018-05-19T11:25:37.004Z,19.87
2018-05-19T11:26:36.885Z,19.94
2018-05-19T11:27:36.895Z,20.00
2018-05-19T11:28:36.845Z,20.02
2018-05-19T11:29:36.900Z,19.88
2018-05-19T11:30:36.808Z,19.95
2018-05-19T11:31:36.813Z,20.15
2018-05-19T11:32:36.772Z,20.15
2018-05-19T11:33:36.826Z,20.12
2018-05-19T11:34:36.732Z,20.15
2018-05-19T11:35:36.738Z,20.46
2018-05-19T11:36:36.693Z,20.77
2018-05-19T11:37:36.751Z,21.16
2018-05-19T11:38:36.658Z,21.19
2018-05-19T11:39:36.666Z,21.27
2018-05-19T11:40:36.620Z,21.20
2018-05-19T11:41:36.774Z,21.16
2018-05-19T11:42:36.599Z,21.17
2018-05-19T11:43:36.593Z,20.90
2018-05-19T11:44:36.549Z,20.62
2018-05-19T11:45:36.607Z,20.68
2018-05-19T11:46:36.511Z,20.54
2018-05-19T11:47:36.517Z,20.65
2018-05-19T11:48:36.476Z,21.06
2018-05-19T11:49:36.535Z,21.44
2018-05-19T11:50:36.522Z,21.95
2018-05-19T11:51:36.449Z,22.25
2018-05-19T11:52:36.408Z,22.09
2018-05-19T11:53:36.455Z,21.92
2018-05-19T11:54:36.372Z,21.79
2018-05-19T11:55:36.476Z,21.71
2018-05-19T11:56:36.335Z,21.76
2018-05-19T11:57:36.395Z,22.06
2018-05-19T11:58:36.301Z,22.25
2018-05-19T11:59:36.399Z,22.28
2018-05-19T12:00:36.268Z,22.31
2018-05-19T12:01:36.309Z,22.23
2018-05-19T12:02:36.299Z,22.20
2018-05-19T12:03:36.324Z,22.35
2018-05-19T12:04:36.201Z,22.34
2018-05-19T12:05:36.235Z,22.12
2018-05-19T12:06:36.166Z,21.78
2018-05-19T12:07:36.249Z,21.54
2018-05-19T12:08:36.257Z,21.29
2018-05-19T12:09:36.114Z,21.19
2018-05-19T12:10:36.171Z,21.05
2018-05-19T12:11:36.082Z,21.04
2018-05-19T12:12:36.184Z,21.14
2018-05-19T12:13:36.046Z,21.16
2018-05-19T12:14:36.038Z,21.16
2018-05-19T12:15:36.125Z,21.16
2018-05-19T12:16:35.999Z,21.13
2018-05-19T12:17:36.117Z,21.23
2018-05-19T12:18:35.973Z,21.34
2018-05-19T12:19:36.024Z,21.69
2018-05-19T12:20:35.932Z,21.90
2018-05-19T12:21:36.738Z,22.07
2018-05-19T12:22:36.587Z,22.12
2018-05-19T12:23:35.947Z,22.28
2018-05-19T12:24:35.862Z,22.49
2018-05-19T12:25:35.858Z,22.50
2018-05-19T12:26:35.829Z,22.50
2018-05-19T12:27:35.813Z,22.52
2018-05-19T12:28:37.585Z,22.29
2018-05-19T12:29:36.570Z,22.25
2018-05-19T12:30:36.655Z,22.07
2018-05-19T12:31:36.581Z,22.09
2018-05-19T12:32:36.594Z,22.29
2018-05-19T12:33:35.718Z,22.57
2018-05-19T12:34:35.732Z,22.77
2018-05-19T12:35:35.683Z,23.05
2018-05-19T12:36:35.731Z,23.04
2018-05-19T12:37:35.653Z,22.74
2018-05-19T12:38:35.748Z,22.52
2018-05-19T12:39:35.611Z,22.54
2018-05-19T12:40:35.659Z,22.49
2018-05-19T12:41:35.637Z,22.47
2018-05-19T12:42:35.682Z,22.68
2018-05-19T12:43:35.564Z,22.99
2018-05-19T12:44:35.585Z,23.11
2018-05-19T12:45:35.532Z,23.17
2018-05-19T12:46:35.599Z,23.29
2018-05-19T12:47:35.502Z,23.55
2018-05-19T12:48:35.508Z,23.72
2018-05-19T12:49:35.460Z,23.92
2018-05-19T12:50:35.522Z,23.89
2018-05-19T12:51:35.427Z,23.68
2018-05-19T12:52:35.433Z,23.62
2018-05-19T12:53:35.392Z,23.52
2018-05-19T12:54:35.450Z,23.47
2018-05-19T12:55:35.365Z,23.46
2018-05-19T12:56:35.361Z,23.55
2018-05-19T12:57:35.348Z,23.82
2018-05-19T12:58:35.376Z,23.87
2018-05-19T12:59:35.300Z,24.02
2018-05-19T13:00:35.390Z,24.05